sensor_id;sensor_type;location;lat;lon;timestamp;pressure;altitude;pressure_sealevel;temperature;humidity
40315;BME280;26021;45.640;11.302;2024-02-15T00:01:10;99478.69;;;4.23;100.00
40315;BME280;26021;45.640;11.302;2024-02-15T00:03:36;99616.84;;;5.06;100.00
40315;BME280;26021;45.640;11.302;2024-02-15T00:06:01;99616.59;;;5.09;100.00
40315;BME280;26021;45.640;11.302;2024-02-15T00:08:29;99622.63;;;5.23;100.00
40315;BME280;26021;45.640;11.302;2024-02-15T00:10:54;99606.00;;;5.21;100.00
40315;BME280;26021;45.640;11.302;2024-02-15T00:13:20;99591.41;;;5.15;100.00
40315;BME280;26021;45.640;11.302;2024-02-15T00:15:45;99592.41;;;5.03;100.00
40315;BME280;26021;45.640;11.302;2024-02-15T00:18:14;99561.59;;;4.79;100.00
40315;BME280;26021;45.640;11.302;2024-02-15T00:20:40;99596.63;;;4.94;100.00
40315;BME280;26021;45.640;11.302;2024-02-15T00:23:05;99594.19;;;5.14;100.00
40315;BME280;26021;45.640;11.302;2024-02-15T00:25:32;99593.59;;;5.10;100.00
40315;BME280;26021;45.640;11.302;2024-02-15T00:27:57;99526.47;;;5.09;100.00
40315;BME280;26021;45.640;11.302;2024-02-15T00:30:26;99569.56;;;5.34;100.00
40315;BME280;26021;45.640;11.302;2024-02-15T00:32:52;99435.56;;;4.55;100.00
40315;BME280;26021;45.640;11.302;2024-02-15T00:35:18;99581.22;;;5.42;100.00
40315;BME280;26021;45.640;11.302;2024-02-15T00:37:44;99582.47;;;5.59;100.00
40315;BME280;26021;45.640;11.302;2024-02-15T00:40:10;99359.47;;;4.02;100.00
40315;BME280;26021;45.640;11.302;2024-02-15T00:42:36;99584.75;;;5.32;100.00
40315;BME280;26021;45.640;11.302;2024-02-15T00:45:02;99578.41;;;5.55;100.00
40315;BME280;26021;45.640;11.302;2024-02-15T00:47:27;99575.56;;;5.68;100.00
40315;BME280;26021;45.640;11.302;2024-02-15T00:49:53;99539.16;;;5.38;100.00
40315;BME280;26021;45.640;11.302;2024-02-15T00:52:19;99578.72;;;5.62;100.00
40315;BME280;26021;45.640;11.302;2024-02-15T00:54:45;99559.75;;;5.46;100.00
40315;BME280;26021;45.640;11.302;2024-02-15T00:57:11;99566.81;;;5.56;100.00
40315;BME280;26021;45.640;11.302;2024-02-15T00:59:36;99561.31;;;5.48;100.00
40315;BME280;26021;45.640;11.302;2024-02-15T01:02:02;99388.59;;;4.45;100.00
40315;BME280;26021;45.640;11.302;2024-02-15T01:04:28;99511.25;;;5.11;100.00
40315;BME280;26021;45.640;11.302;2024-02-15T01:06:54;99570.59;;;5.42;100.00
40315;BME280;26021;45.640;11.302;2024-02-15T01:09:21;99572.16;;;5.45;100.00
40315;BME280;26021;45.640;11.302;2024-02-15T01:11:47;99566.59;;;5.48;100.00
40315;BME280;26021;45.640;11.302;2024-02-15T01:14:13;99577.22;;;5.48;100.00
40315;BME280;26021;45.640;11.302;2024-02-15T01:16:38;99494.44;;;5.01;100.00
40315;BME280;26021;45.640;11.302;2024-02-15T01:19:04;99569.47;;;5.56;100.00
40315;BME280;26021;45.640;11.302;2024-02-15T01:21:30;99536.44;;;5.17;100.00
40315;BME280;26021;45.640;11.302;2024-02-15T01:23:58;99566.06;;;5.33;100.00
40315;BME280;26021;45.640;11.302;2024-02-15T01:26:25;99545.31;;;5.38;100.00
40315;BME280;26021;45.640;11.302;2024-02-15T01:28:51;99576.31;;;5.59;100.00
40315;BME280;26021;45.640;11.302;2024-02-15T01:31:16;99528.97;;;5.22;100.00
40315;BME280;26021;45.640;11.302;2024-02-15T01:33:43;99555.13;;;5.27;100.00
40315;BME280;26021;45.640;11.302;2024-02-15T01:36:14;99584.16;;;5.60;100.00
40315;BME280;26021;45.640;11.302;2024-02-15T01:38:40;99535.94;;;5.55;100.00
40315;BME280;26021;45.640;11.302;2024-02-15T01:41:06;99558.59;;;5.80;100.00
40315;BME280;26021;45.640;11.302;2024-02-15T01:43:32;99573.09;;;5.76;100.00
40315;BME280;26021;45.640;11.302;2024-02-15T01:45:57;99566.50;;;5.70;100.00
40315;BME280;26021;45.640;11.302;2024-02-15T01:48:26;99565.47;;;5.62;100.00
40315;BME280;26021;45.640;11.302;2024-02-15T01:50:52;99555.03;;;5.49;100.00
40315;BME280;26021;45.640;11.302;2024-02-15T01:53:18;99556.13;;;5.67;100.00
40315;BME280;26021;45.640;11.302;2024-02-15T01:55:44;99544.34;;;5.60;100.00
40315;BME280;26021;45.640;11.302;2024-02-15T01:58:09;99539.44;;;5.56;100.00
40315;BME280;26021;45.640;11.302;2024-02-15T02:00:36;99552.03;;;5.42;100.00
40315;BME280;26021;45.640;11.302;2024-02-15T02:03:05;99557.84;;;5.36;100.00
40315;BME280;26021;45.640;11.302;2024-02-15T02:05:31;99535.25;;;5.21;100.00
40315;BME280;26021;45.640;11.302;2024-02-15T02:07:57;99535.84;;;5.25;100.00
40315;BME280;26021;45.640;11.302;2024-02-15T02:10:29;99534.16;;;5.24;100.00
40315;BME280;26021;45.640;11.302;2024-02-15T02:12:59;99516.31;;;5.15;100.00
40315;BME280;26021;45.640;11.302;2024-02-15T02:15:26;99561.41;;;5.15;100.00
40315;BME280;26021;45.640;11.302;2024-02-15T02:17:51;99496.78;;;4.84;100.00
40315;BME280;26021;45.640;11.302;2024-02-15T02:20:17;99524.97;;;5.17;100.00
40315;BME280;26021;45.640;11.302;2024-02-15T02:22:46;99540.38;;;5.34;100.00
40315;BME280;26021;45.640;11.302;2024-02-15T02:25:12;99487.91;;;4.62;100.00
40315;BME280;26021;45.640;11.302;2024-02-15T02:27:38;99545.31;;;4.95;100.00
40315;BME280;26021;45.640;11.302;2024-02-15T02:30:15;99536.75;;;4.92;100.00
40315;BME280;26021;45.640;11.302;2024-02-15T02:32:42;99528.38;;;5.07;100.00
40315;BME280;26021;45.640;11.302;2024-02-15T02:35:08;99533.81;;;5.06;100.00
40315;BME280;26021;45.640;11.302;2024-02-15T02:37:37;99533.69;;;5.07;100.00
40315;BME280;26021;45.640;11.302;2024-02-15T02:40:04;99474.94;;;4.91;100.00
40315;BME280;26021;45.640;11.302;2024-02-15T02:42:30;99540.78;;;5.18;100.00
40315;BME280;26021;45.640;11.302;2024-02-15T02:44:55;99535.72;;;5.26;100.00
40315;BME280;26021;45.640;11.302;2024-02-15T02:47:21;99535.13;;;5.11;100.00
40315;BME280;26021;45.640;11.302;2024-02-15T02:49:47;99541.75;;;5.17;100.00
40315;BME280;26021;45.640;11.302;2024-02-15T02:52:12;99543.81;;;5.14;100.00
40315;BME280;26021;45.640;11.302;2024-02-15T02:54:37;99535.97;;;5.12;100.00
40315;BME280;26021;45.640;11.302;2024-02-15T02:57:03;99535.38;;;5.08;100.00
40315;BME280;26021;45.640;11.302;2024-02-15T02:59:33;99488.88;;;4.61;100.00
40315;BME280;26021;45.640;11.302;2024-02-15T03:02:00;99503.13;;;4.92;100.00
40315;BME280;26021;45.640;11.302;2024-02-15T03:04:25;99383.25;;;4.13;100.00
40315;BME280;26021;45.640;11.302;2024-02-15T03:06:51;99538.13;;;5.18;100.00
40315;BME280;26021;45.640;11.302;2024-02-15T03:09:18;99504.41;;;4.66;100.00
40315;BME280;26021;45.640;11.302;2024-02-15T03:11:45;99431.25;;;4.20;100.00
40315;BME280;26021;45.640;11.302;2024-02-15T03:14:11;99460.84;;;4.47;100.00
40315;BME280;26021;45.640;11.302;2024-02-15T03:16:37;99552.28;;;4.96;100.00
40315;BME280;26021;45.640;11.302;2024-02-15T03:19:03;99546.75;;;4.88;100.00
40315;BME280;26021;45.640;11.302;2024-02-15T03:21:29;99472.91;;;4.29;100.00
40315;BME280;26021;45.640;11.302;2024-02-15T03:23:55;99545.06;;;4.87;100.00
40315;BME280;26021;45.640;11.302;2024-02-15T03:26:30;99545.81;;;4.78;100.00
40315;BME280;26021;45.640;11.302;2024-02-15T03:29:04;99545.22;;;4.74;100.00
40315;BME280;26021;45.640;11.302;2024-02-15T03:31:29;99544.72;;;4.81;100.00
40315;BME280;26021;45.640;11.302;2024-02-15T03:33:57;99519.47;;;4.65;100.00
40315;BME280;26021;45.640;11.302;2024-02-15T03:36:23;99540.88;;;4.73;100.00
40315;BME280;26021;45.640;11.302;2024-02-15T03:38:49;99537.75;;;4.79;100.00
40315;BME280;26021;45.640;11.302;2024-02-15T03:41:14;99538.84;;;4.66;100.00
40315;BME280;26021;45.640;11.302;2024-02-15T03:43:40;99532.34;;;4.70;100.00
40315;BME280;26021;45.640;11.302;2024-02-15T03:46:05;99530.59;;;4.91;100.00
40315;BME280;26021;45.640;11.302;2024-02-15T03:48:34;99463.63;;;4.12;100.00
40315;BME280;26021;45.640;11.302;2024-02-15T03:50:59;99445.13;;;4.01;100.00
40315;BME280;26021;45.640;11.302;2024-02-15T03:53:27;99241.81;;;3.07;100.00
40315;BME280;26021;45.640;11.302;2024-02-15T03:55:53;99521.94;;;4.89;100.00
40315;BME280;26021;45.640;11.302;2024-02-15T03:58:19;99514.28;;;4.64;100.00
40315;BME280;26021;45.640;11.302;2024-02-15T04:00:45;99480.38;;;4.46;100.00
40315;BME280;26021;45.640;11.302;2024-02-15T04:03:10;99518.03;;;4.61;100.00
40315;BME280;26021;45.640;11.302;2024-02-15T04:05:36;99526.56;;;4.65;100.00
40315;BME280;26021;45.640;11.302;2024-02-15T04:08:01;99531.88;;;4.65;100.00
40315;BME280;26021;45.640;11.302;2024-02-15T04:10:27;99527.03;;;4.81;100.00
40315;BME280;26021;45.640;11.302;2024-02-15T04:12:53;99519.28;;;4.89;100.00
40315;BME280;26021;45.640;11.302;2024-02-15T04:15:18;99514.44;;;4.51;100.00
40315;BME280;26021;45.640;11.302;2024-02-15T04:17:44;99523.81;;;4.55;100.00
40315;BME280;26021;45.640;11.302;2024-02-15T04:20:10;99535.03;;;4.47;100.00
40315;BME280;26021;45.640;11.302;2024-02-15T04:22:37;99517.69;;;4.55;100.00
40315;BME280;26021;45.640;11.302;2024-02-15T04:25:07;99536.69;;;4.60;100.00
40315;BME280;26021;45.640;11.302;2024-02-15T04:27:35;99530.91;;;4.32;100.00
40315;BME280;26021;45.640;11.302;2024-02-15T04:30:02;99539.81;;;4.42;100.00
40315;BME280;26021;45.640;11.302;2024-02-15T04:32:27;99478.81;;;4.10;100.00
40315;BME280;26021;45.640;11.302;2024-02-15T04:34:54;99448.00;;;3.87;100.00
40315;BME280;26021;45.640;11.302;2024-02-15T04:37:19;99520.31;;;4.21;100.00
40315;BME280;26021;45.640;11.302;2024-02-15T04:39:46;99537.75;;;4.12;100.00
40315;BME280;26021;45.640;11.302;2024-02-15T04:42:12;99543.78;;;4.26;100.00
40315;BME280;26021;45.640;11.302;2024-02-15T04:44:40;99475.50;;;3.62;100.00
40315;BME280;26021;45.640;11.302;2024-02-15T04:47:06;99527.19;;;4.12;100.00
40315;BME280;26021;45.640;11.302;2024-02-15T04:49:34;99505.38;;;3.98;100.00
40315;BME280;26021;45.640;11.302;2024-02-15T04:52:03;99543.19;;;4.22;100.00
40315;BME280;26021;45.640;11.302;2024-02-15T04:54:29;99334.81;;;2.77;100.00
40315;BME280;26021;45.640;11.302;2024-02-15T04:56:55;99542.34;;;4.10;100.00
40315;BME280;26021;45.640;11.302;2024-02-15T04:59:22;99518.16;;;4.26;100.00
40315;BME280;26021;45.640;11.302;2024-02-15T05:01:53;99518.38;;;4.34;100.00
40315;BME280;26021;45.640;11.302;2024-02-15T05:04:19;99538.50;;;4.26;100.00
40315;BME280;26021;45.640;11.302;2024-02-15T05:06:44;99528.75;;;4.37;100.00
40315;BME280;26021;45.640;11.302;2024-02-15T05:09:10;99532.47;;;4.35;100.00
40315;BME280;26021;45.640;11.302;2024-02-15T05:11:40;99527.78;;;4.38;100.00
40315;BME280;26021;45.640;11.302;2024-02-15T05:14:07;99532.38;;;4.47;100.00
40315;BME280;26021;45.640;11.302;2024-02-15T05:16:34;99528.16;;;4.56;100.00
40315;BME280;26021;45.640;11.302;2024-02-15T05:18:59;99532.59;;;4.56;100.00
40315;BME280;26021;45.640;11.302;2024-02-15T05:21:25;99468.81;;;4.03;100.00
40315;BME280;26021;45.640;11.302;2024-02-15T05:23:50;99517.66;;;4.32;100.00
40315;BME280;26021;45.640;11.302;2024-02-15T05:26:17;99450.41;;;3.79;100.00
40315;BME280;26021;45.640;11.302;2024-02-15T05:28:50;99481.34;;;4.01;100.00
40315;BME280;26021;45.640;11.302;2024-02-15T05:31:20;99513.34;;;4.20;100.00
40315;BME280;26021;45.640;11.302;2024-02-15T05:33:46;99513.81;;;4.14;100.00
40315;BME280;26021;45.640;11.302;2024-02-15T05:36:16;99512.63;;;4.07;100.00
40315;BME280;26021;45.640;11.302;2024-02-15T05:38:46;99432.31;;;3.62;100.00
40315;BME280;26021;45.640;11.302;2024-02-15T05:41:12;99516.81;;;4.09;100.00
40315;BME280;26021;45.640;11.302;2024-02-15T05:43:38;99485.91;;;3.88;100.00
40315;BME280;26021;45.640;11.302;2024-02-15T05:46:04;99522.00;;;4.11;100.00
40315;BME280;26021;45.640;11.302;2024-02-15T05:48:32;99519.22;;;4.12;100.00
40315;BME280;26021;45.640;11.302;2024-02-15T05:51:01;99467.47;;;3.75;100.00
40315;BME280;26021;45.640;11.302;2024-02-15T05:53:26;99519.47;;;3.98;100.00
40315;BME280;26021;45.640;11.302;2024-02-15T05:55:52;99534.00;;;3.93;100.00
40315;BME280;26021;45.640;11.302;2024-02-15T05:58:18;99489.78;;;3.60;100.00
40315;BME280;26021;45.640;11.302;2024-02-15T06:00:43;99535.59;;;3.95;100.00
40315;BME280;26021;45.640;11.302;2024-02-15T06:03:10;99509.34;;;3.81;100.00
40315;BME280;26021;45.640;11.302;2024-02-15T06:05:37;99523.44;;;4.15;100.00
40315;BME280;26021;45.640;11.302;2024-02-15T06:08:03;99492.41;;;3.48;100.00
40315;BME280;26021;45.640;11.302;2024-02-15T06:10:29;99473.78;;;3.50;100.00
40315;BME280;26021;45.640;11.302;2024-02-15T06:12:56;99530.78;;;4.11;100.00
40315;BME280;26021;45.640;11.302;2024-02-15T06:15:22;99452.28;;;3.66;100.00
40315;BME280;26021;45.640;11.302;2024-02-15T06:17:49;99498.41;;;3.86;100.00
40315;BME280;26021;45.640;11.302;2024-02-15T06:20:15;99542.81;;;4.04;100.00
40315;BME280;26021;45.640;11.302;2024-02-15T06:22:43;99506.47;;;3.84;100.00
40315;BME280;26021;45.640;11.302;2024-02-15T06:25:09;99549.19;;;4.02;100.00
40315;BME280;26021;45.640;11.302;2024-02-15T06:27:36;99488.97;;;3.70;100.00
40315;BME280;26021;45.640;11.302;2024-02-15T06:30:07;99557.38;;;3.99;100.00
40315;BME280;26021;45.640;11.302;2024-02-15T06:32:51;99563.38;;;4.01;100.00
40315;BME280;26021;45.640;11.302;2024-02-15T06:35:35;99502.19;;;3.70;100.00
40315;BME280;26021;45.640;11.302;2024-02-15T06:38:19;99549.19;;;4.24;100.00
40315;BME280;26021;45.640;11.302;2024-02-15T06:41:03;99562.34;;;4.48;100.00
40315;BME280;26021;45.640;11.302;2024-02-15T06:43:29;99563.06;;;4.50;100.00
40315;BME280;26021;45.640;11.302;2024-02-15T06:45:55;99567.03;;;4.33;100.00
40315;BME280;26021;45.640;11.302;2024-02-15T06:48:20;99564.00;;;4.27;100.00
40315;BME280;26021;45.640;11.302;2024-02-15T06:50:49;99569.91;;;4.30;100.00
40315;BME280;26021;45.640;11.302;2024-02-15T06:53:14;99574.00;;;4.34;100.00
40315;BME280;26021;45.640;11.302;2024-02-15T06:55:40;99574.00;;;4.34;100.00
40315;BME280;26021;45.640;11.302;2024-02-15T06:58:05;99572.94;;;4.59;100.00
40315;BME280;26021;45.640;11.302;2024-02-15T07:00:31;99555.59;;;4.55;100.00
40315;BME280;26021;45.640;11.302;2024-02-15T07:02:57;99566.31;;;4.76;100.00
40315;BME280;26021;45.640;11.302;2024-02-15T07:05:23;99572.44;;;4.88;100.00
40315;BME280;26021;45.640;11.302;2024-02-15T07:07:49;99563.28;;;4.81;100.00
40315;BME280;26021;45.640;11.302;2024-02-15T07:10:15;99577.09;;;4.95;100.00
40315;BME280;26021;45.640;11.302;2024-02-15T07:12:42;99573.38;;;4.87;100.00
40315;BME280;26021;45.640;11.302;2024-02-15T07:15:09;99568.44;;;4.93;100.00
40315;BME280;26021;45.640;11.302;2024-02-15T07:17:35;99578.28;;;5.14;100.00
40315;BME280;26021;45.640;11.302;2024-02-15T07:20:03;99569.94;;;5.29;100.00
40315;BME280;26021;45.640;11.302;2024-02-15T07:22:32;99574.63;;;5.58;100.00
40315;BME280;26021;45.640;11.302;2024-02-15T07:24:57;99553.72;;;5.43;100.00
40315;BME280;26021;45.640;11.302;2024-02-15T07:27:22;99579.38;;;5.75;100.00
40315;BME280;26021;45.640;11.302;2024-02-15T07:29:50;99571.75;;;5.82;100.00
40315;BME280;26021;45.640;11.302;2024-02-15T07:32:16;99493.47;;;5.55;100.00
40315;BME280;26021;45.640;11.302;2024-02-15T07:34:42;99567.44;;;6.22;100.00
40315;BME280;26021;45.640;11.302;2024-02-15T07:37:09;99569.97;;;6.54;100.00
40315;BME280;26021;45.640;11.302;2024-02-15T07:39:35;99566.91;;;6.89;100.00
40315;BME280;26021;45.640;11.302;2024-02-15T07:42:01;99565.91;;;6.81;100.00
40315;BME280;26021;45.640;11.302;2024-02-15T07:44:30;99553.31;;;6.83;100.00
40315;BME280;26021;45.640;11.302;2024-02-15T07:46:58;99488.94;;;6.39;100.00
40315;BME280;26021;45.640;11.302;2024-02-15T07:49:26;99485.69;;;6.76;100.00
40315;BME280;26021;45.640;11.302;2024-02-15T07:51:51;99557.63;;;7.43;100.00
40315;BME280;26021;45.640;11.302;2024-02-15T07:54:20;99489.66;;;6.91;100.00
40315;BME280;26021;45.640;11.302;2024-02-15T07:56:49;99553.97;;;7.44;100.00
40315;BME280;26021;45.640;11.302;2024-02-15T07:59:14;99562.81;;;7.64;100.00
40315;BME280;26021;45.640;11.302;2024-02-15T08:01:44;99565.56;;;7.91;100.00
40315;BME280;26021;45.640;11.302;2024-02-15T08:04:12;99557.72;;;8.00;100.00
40315;BME280;26021;45.640;11.302;2024-02-15T08:06:38;99553.34;;;8.08;100.00
40315;BME280;26021;45.640;11.302;2024-02-15T08:09:04;99557.19;;;8.52;100.00
40315;BME280;26021;45.640;11.302;2024-02-15T08:11:32;99544.34;;;8.38;100.00
40315;BME280;26021;45.640;11.302;2024-02-15T08:13:57;99550.50;;;8.29;100.00
40315;BME280;26021;45.640;11.302;2024-02-15T08:16:25;99547.16;;;8.37;100.00
40315;BME280;26021;45.640;11.302;2024-02-15T08:18:54;99553.78;;;8.60;100.00
40315;BME280;26021;45.640;11.302;2024-02-15T08:21:29;99350.03;;;7.43;100.00
40315;BME280;26021;45.640;11.302;2024-02-15T08:23:58;99528.94;;;8.59;100.00
40315;BME280;26021;45.640;11.302;2024-02-15T08:26:24;99551.88;;;8.80;100.00
40315;BME280;26021;45.640;11.302;2024-02-15T08:28:49;99546.84;;;9.04;100.00
40315;BME280;26021;45.640;11.302;2024-02-15T08:31:15;99518.81;;;8.90;100.00
40315;BME280;26021;45.640;11.302;2024-02-15T08:33:43;99541.22;;;9.43;100.00
40315;BME280;26021;45.640;11.302;2024-02-15T08:36:10;99539.31;;;9.35;100.00
40315;BME280;26021;45.640;11.302;2024-02-15T08:38:36;99520.09;;;9.49;100.00
40315;BME280;26021;45.640;11.302;2024-02-15T08:41:02;99504.13;;;9.57;100.00
40315;BME280;26021;45.640;11.302;2024-02-15T08:43:29;99544.19;;;9.57;100.00
40315;BME280;26021;45.640;11.302;2024-02-15T08:45:58;99529.47;;;9.53;100.00
40315;BME280;26021;45.640;11.302;2024-02-15T08:48:23;99526.56;;;9.47;100.00
40315;BME280;26021;45.640;11.302;2024-02-15T08:50:49;99538.25;;;9.46;100.00
40315;BME280;26021;45.640;11.302;2024-02-15T08:53:15;99340.63;;;8.58;100.00
40315;BME280;26021;45.640;11.302;2024-02-15T08:55:41;99536.03;;;9.77;100.00
40315;BME280;26021;45.640;11.302;2024-02-15T08:58:06;99530.22;;;9.64;100.00
40315;BME280;26021;45.640;11.302;2024-02-15T09:00:34;99494.91;;;9.52;100.00
40315;BME280;26021;45.640;11.302;2024-02-15T09:03:00;99538.03;;;10.01;100.00
40315;BME280;26021;45.640;11.302;2024-02-15T09:05:25;99500.88;;;9.90;100.00
40315;BME280;26021;45.640;11.302;2024-02-15T09:07:51;99529.06;;;10.54;100.00
40315;BME280;26021;45.640;11.302;2024-02-15T09:10:16;99524.88;;;10.51;100.00
40315;BME280;26021;45.640;11.302;2024-02-15T09:12:43;99530.38;;;10.49;100.00
40315;BME280;26021;45.640;11.302;2024-02-15T09:15:10;99522.38;;;10.58;100.00
40315;BME280;26021;45.640;11.302;2024-02-15T09:17:42;99503.97;;;10.55;100.00
40315;BME280;26021;45.640;11.302;2024-02-15T09:20:10;99510.22;;;10.71;100.00
40315;BME280;26021;45.640;11.302;2024-02-15T09:22:49;99522.81;;;10.79;100.00
40315;BME280;26021;45.640;11.302;2024-02-15T09:25:16;99430.63;;;10.23;100.00
40315;BME280;26021;45.640;11.302;2024-02-15T09:27:42;99517.97;;;10.82;100.00
40315;BME280;26021;45.640;11.302;2024-02-15T09:30:08;99476.16;;;10.81;100.00
40315;BME280;26021;45.640;11.302;2024-02-15T09:32:41;99508.41;;;10.80;100.00
40315;BME280;26021;45.640;11.302;2024-02-15T09:35:09;99467.75;;;10.68;100.00
40315;BME280;26021;45.640;11.302;2024-02-15T09:37:38;99509.50;;;11.11;100.00
40315;BME280;26021;45.640;11.302;2024-02-15T09:40:10;99522.44;;;11.16;100.00
40315;BME280;26021;45.640;11.302;2024-02-15T09:42:37;99523.63;;;11.22;100.00
40315;BME280;26021;45.640;11.302;2024-02-15T09:45:04;99498.63;;;11.05;100.00
40315;BME280;26021;45.640;11.302;2024-02-15T09:47:40;99517.34;;;10.97;100.00
40315;BME280;26021;45.640;11.302;2024-02-15T09:50:10;99498.56;;;10.80;100.00
40315;BME280;26021;45.640;11.302;2024-02-15T09:52:45;99512.31;;;10.94;100.00
40315;BME280;26021;45.640;11.302;2024-02-15T09:55:11;99494.22;;;10.79;100.00
40315;BME280;26021;45.640;11.302;2024-02-15T09:57:39;99493.69;;;10.76;100.00
40315;BME280;26021;45.640;11.302;2024-02-15T10:00:07;99526.56;;;11.10;100.00
40315;BME280;26021;45.640;11.302;2024-02-15T10:02:34;99481.19;;;10.85;100.00
40315;BME280;26021;45.640;11.302;2024-02-15T10:05:01;99501.97;;;11.07;100.00
40315;BME280;26021;45.640;11.302;2024-02-15T10:07:27;99513.13;;;10.86;100.00
40315;BME280;26021;45.640;11.302;2024-02-15T10:09:53;99475.84;;;10.93;100.00
40315;BME280;26021;45.640;11.302;2024-02-15T10:12:18;99467.66;;;11.02;100.00
40315;BME280;26021;45.640;11.302;2024-02-15T10:14:52;99493.94;;;11.07;100.00
40315;BME280;26021;45.640;11.302;2024-02-15T10:17:20;99508.41;;;11.30;100.00
40315;BME280;26021;45.640;11.302;2024-02-15T10:20:05;99500.72;;;11.43;100.00
40315;BME280;26021;45.640;11.302;2024-02-15T10:22:32;99494.34;;;11.44;100.00
40315;BME280;26021;45.640;11.302;2024-02-15T10:25:13;99503.22;;;11.53;100.00
40315;BME280;26021;45.640;11.302;2024-02-15T10:27:42;99494.00;;;11.48;100.00
40315;BME280;26021;45.640;11.302;2024-02-15T10:30:18;99504.06;;;11.37;100.00
40315;BME280;26021;45.640;11.302;2024-02-15T10:32:45;99493.00;;;11.32;100.00
40315;BME280;26021;45.640;11.302;2024-02-15T10:35:19;99500.22;;;11.40;100.00
40315;BME280;26021;45.640;11.302;2024-02-15T10:37:44;99491.34;;;11.56;100.00
40315;BME280;26021;45.640;11.302;2024-02-15T10:40:10;99490.31;;;11.65;100.00
40315;BME280;26021;45.640;11.302;2024-02-15T10:42:40;99492.66;;;11.68;100.00
40315;BME280;26021;45.640;11.302;2024-02-15T10:45:07;99469.22;;;11.62;100.00
40315;BME280;26021;45.640;11.302;2024-02-15T10:47:37;99471.22;;;11.76;100.00
40315;BME280;26021;45.640;11.302;2024-02-15T10:50:02;99465.88;;;11.76;100.00
40315;BME280;26021;45.640;11.302;2024-02-15T10:52:31;99442.44;;;11.78;100.00
40315;BME280;26021;45.640;11.302;2024-02-15T10:55:03;99466.38;;;12.04;100.00
40315;BME280;26021;45.640;11.302;2024-02-15T10:57:31;99457.50;;;12.03;100.00
40315;BME280;26021;45.640;11.302;2024-02-15T10:59:59;99456.19;;;11.91;100.00
40315;BME280;26021;45.640;11.302;2024-02-15T11:02:42;99394.19;;;11.70;100.00
40315;BME280;26021;45.640;11.302;2024-02-15T11:05:14;99452.44;;;12.17;100.00
40315;BME280;26021;45.640;11.302;2024-02-15T11:07:46;99451.53;;;12.32;100.00
40315;BME280;26021;45.640;11.302;2024-02-15T11:10:11;99434.88;;;12.45;100.00
40315;BME280;26021;45.640;11.302;2024-02-15T11:12:42;99438.91;;;12.49;100.00
40315;BME280;26021;45.640;11.302;2024-02-15T11:15:09;99419.50;;;12.39;100.00
40315;BME280;26021;45.640;11.302;2024-02-15T11:23:01;99418.28;;;12.50;100.00
40315;BME280;26021;45.640;11.302;2024-02-15T11:25:33;99406.75;;;12.41;100.00
40315;BME280;26021;45.640;11.302;2024-02-15T11:30:49;99427.41;;;12.71;100.00
40315;BME280;26021;45.640;11.302;2024-02-15T11:33:31;99426.44;;;12.64;100.00
40315;BME280;26021;45.640;11.302;2024-02-15T11:38:30;99411.59;;;12.77;100.00
40315;BME280;26021;45.640;11.302;2024-02-15T11:46:16;99406.06;;;13.01;100.00
40315;BME280;26021;45.640;11.302;2024-02-15T11:48:44;99402.50;;;13.09;100.00
40315;BME280;26021;45.640;11.302;2024-02-15T11:51:09;99337.28;;;12.77;100.00
40315;BME280;26021;45.640;11.302;2024-02-15T11:53:39;99379.13;;;13.17;100.00
40315;BME280;26021;45.640;11.302;2024-02-15T11:56:05;99394.16;;;13.26;99.87
40315;BME280;26021;45.640;11.302;2024-02-15T11:58:31;99388.47;;;12.98;100.00
40315;BME280;26021;45.640;11.302;2024-02-15T12:01:17;99352.00;;;13.04;99.99
40315;BME280;26021;45.640;11.302;2024-02-15T12:04:01;99382.38;;;13.27;99.30
40315;BME280;26021;45.640;11.302;2024-02-15T12:06:45;99384.25;;;13.27;98.86
40315;BME280;26021;45.640;11.302;2024-02-15T12:09:29;99360.06;;;13.27;98.90
40315;BME280;26021;45.640;11.302;2024-02-15T12:12:12;99375.78;;;13.38;98.19
40315;BME280;26021;45.640;11.302;2024-02-15T12:15:00;99355.91;;;13.24;98.58
40315;BME280;26021;45.640;11.302;2024-02-15T12:17:44;99369.13;;;13.49;98.30
40315;BME280;26021;45.640;11.302;2024-02-15T12:20:28;99347.22;;;13.37;98.19
40315;BME280;26021;45.640;11.302;2024-02-15T12:22:54;99309.69;;;13.29;97.11
40315;BME280;26021;45.640;11.302;2024-02-15T12:25:20;99329.66;;;13.49;97.45
40315;BME280;26021;45.640;11.302;2024-02-15T12:27:54;99366.56;;;13.70;97.72
40315;BME280;26021;45.640;11.302;2024-02-15T12:30:20;99296.34;;;13.35;96.85
40315;BME280;26021;45.640;11.302;2024-02-15T12:32:49;99358.59;;;13.77;95.58
40315;BME280;26021;45.640;11.302;2024-02-15T12:35:23;99291.81;;;13.36;96.13
40315;BME280;26021;45.640;11.302;2024-02-15T12:38:08;99352.47;;;13.83;95.54
40315;BME280;26021;45.640;11.302;2024-02-15T12:40:34;99353.22;;;13.91;95.77
40315;BME280;26021;45.640;11.302;2024-02-15T12:43:01;99346.34;;;14.04;95.33
40315;BME280;26021;45.640;11.302;2024-02-15T12:45:31;99340.22;;;13.95;95.36
40315;BME280;26021;45.640;11.302;2024-02-15T12:47:58;99336.69;;;13.94;95.89
40315;BME280;26021;45.640;11.302;2024-02-15T12:50:27;99300.47;;;13.76;95.62
40315;BME280;26021;45.640;11.302;2024-02-15T12:52:53;99300.00;;;13.57;96.33
40315;BME280;26021;45.640;11.302;2024-02-15T12:55:22;99328.72;;;13.86;95.94
40315;BME280;26021;45.640;11.302;2024-02-15T12:57:53;99291.00;;;13.65;95.21
40315;BME280;26021;45.640;11.302;2024-02-15T13:00:27;99304.81;;;13.77;95.42
40315;BME280;26021;45.640;11.302;2024-02-15T13:03:03;99325.75;;;14.11;94.65
40315;BME280;26021;45.640;11.302;2024-02-15T13:05:29;99318.81;;;14.16;94.36
40315;BME280;26021;45.640;11.302;2024-02-15T13:07:56;99313.78;;;14.28;94.59